Time;durP1;ratioP1;P1;durP2;ratioP2;P2;SDS_P1;SDS_P2;PMS_P1;PMS_P2;Temp;Humidity;BMP_temperature;BMP_pressure;BME280_temperature;BME280_humidity;BME280_pressure;Samples;Min_cycle;Max_cycle;Signal;HPM_P1;HPM_P2
2023/07/21 00:00:15;;;;;;;6.97;1.92;;;18.00;99.90;;;;;;4998318;28;20026;-73
2023/07/21 00:02:42;;;;;;;6.43;2.10;;;17.90;99.90;;;;;;4997448;28;20027;-73
2023/07/21 00:05:08;;;;;;;3.03;1.80;;;17.90;99.90;;;;;;4997410;28;20023;-72
2023/07/21 00:07:35;;;;;;;4.45;2.20;;;17.80;99.90;;;;;;4996491;28;20022;-72
2023/07/21 00:10:07;;;;;;;2.95;2.38;;;17.70;99.90;;;;;;4997346;28;20036;-72
2023/07/21 00:12:37;;;;;;;3.33;2.45;;;17.70;99.90;;;;;;4997284;28;20030;-72
2023/07/21 00:15:04;;;;;;;3.30;2.10;;;17.70;99.90;;;;;;4997284;28;20031;-72
2023/07/21 00:17:30;;;;;;;8.23;3.08;;;17.60;99.90;;;;;;4997340;28;20026;-72
2023/07/21 00:20:01;;;;;;;4.80;2.40;;;17.70;99.90;;;;;;4997276;28;20022;-72
2023/07/21 00:22:28;;;;;;;3.10;2.10;;;17.60;99.90;;;;;;4997206;28;20022;-72
2023/07/21 00:24:53;;;;;;;4.35;2.40;;;17.60;99.90;;;;;;5001471;28;20030;-72
2023/07/21 00:27:19;;;;;;;3.85;2.33;;;17.50;99.90;;;;;;5000224;28;20026;-72
2023/07/21 00:29:45;;;;;;;2.70;2.10;;;17.40;99.90;;;;;;5000897;28;20030;-72
2023/07/21 00:32:12;;;;;;;4.60;2.03;;;17.50;99.90;;;;;;4999887;28;20113;-72
2023/07/21 00:34:37;;;;;;;7.80;2.88;;;17.40;99.90;;;;;;5000767;28;20023;-72
2023/07/21 00:37:04;;;;;;;2.58;1.83;;;17.40;99.90;;;;;;4999891;28;20033;-72
2023/07/21 00:39:29;;;;;;;6.35;2.22;;;17.40;99.90;;;;;;4999852;28;20117;-72
2023/07/21 00:41:55;;;;;;;3.58;2.00;;;17.40;99.90;;;;;;5000104;28;20062;-72
2023/07/21 00:44:21;;;;;;;3.45;1.98;;;17.40;99.90;;;;;;4999939;28;20026;-72
2023/07/21 00:46:47;;;;;;;3.53;1.88;;;17.50;99.90;;;;;;5000892;28;20129;-72
2023/07/21 00:49:12;;;;;;;2.10;1.80;;;17.60;99.90;;;;;;5000911;28;20018;-72
2023/07/21 00:51:39;;;;;;;5.50;2.15;;;17.60;99.90;;;;;;5000760;28;20037;-72
2023/07/21 00:54:05;;;;;;;2.17;1.73;;;17.60;99.90;;;;;;5000410;28;20101;-72
2023/07/21 00:56:31;;;;;;;4.28;1.83;;;17.60;99.90;;;;;;5000464;28;20062;-72
2023/07/21 00:58:58;;;;;;;2.75;1.92;;;17.60;99.90;;;;;;5001079;28;20053;-69
2023/07/21 01:01:24;;;;;;;2.63;2.03;;;17.70;99.90;;;;;;5000167;28;20026;-69
2023/07/21 01:03:49;;;;;;;6.78;2.00;;;17.60;99.90;;;;;;4999609;28;20030;-69
2023/07/21 01:06:15;;;;;;;3.25;2.30;;;17.60;99.90;;;;;;5000477;28;20026;-69
2023/07/21 01:08:41;;;;;;;3.88;2.15;;;17.40;99.90;;;;;;4999652;28;20145;-69
2023/07/21 01:11:10;;;;;;;6.95;2.22;;;17.50;99.90;;;;;;4999746;28;20036;-69
2023/07/21 01:13:36;;;;;;;2.67;2.17;;;17.40;99.90;;;;;;4999330;28;20037;-69
2023/07/21 01:16:02;;;;;;;2.38;1.92;;;17.40;99.90;;;;;;4999212;28;20117;-68
2023/07/21 01:18:28;;;;;;;3.15;1.98;;;17.40;99.90;;;;;;4999003;28;20102;-68
2023/07/21 01:20:55;;;;;;;2.30;2.00;;;17.40;99.90;;;;;;4998994;28;20031;-67
2023/07/21 01:23:43;;;;;;;7.40;2.15;;;17.40;99.90;;;;;;4999325;28;20101;-67
2023/07/21 01:26:11;;;;;;;3.35;2.35;;;17.40;99.90;;;;;;4999713;28;20033;-67
2023/07/21 01:28:40;;;;;;;2.50;2.22;;;17.40;99.90;;;;;;4999076;28;20027;-67
2023/07/21 01:31:06;;;;;;;4.47;2.83;;;17.40;99.90;;;;;;4998888;28;20045;-67
2023/07/21 01:33:33;;;;;;;3.30;2.10;;;17.40;99.90;;;;;;4998697;28;20030;-67
2023/07/21 01:36:01;;;;;;;3.42;2.10;;;17.40;99.90;;;;;;4999282;28;20022;-68
2023/07/21 01:38:27;;;;;;;3.83;2.30;;;17.50;99.90;;;;;;4999732;28;20026;-68
2023/07/21 01:40:53;;;;;;;3.78;2.30;;;17.40;99.90;;;;;;4999002;28;20026;-67
2023/07/21 01:43:19;;;;;;;2.00;1.83;;;17.40;99.90;;;;;;4999026;28;20173;-69
2023/07/21 01:45:45;;;;;;;2.63;2.10;;;17.40;99.90;;;;;;4998791;28;20078;-68
2023/07/21 01:48:10;;;;;;;4.10;2.15;;;17.40;99.90;;;;;;5000000;28;20018;-68
2023/07/21 01:50:39;;;;;;;7.22;2.35;;;17.40;99.90;;;;;;4998717;28;20030;-68
2023/07/21 01:53:12;;;;;;;4.57;1.98;;;17.30;99.90;;;;;;4999534;28;20022;-68
2023/07/21 01:55:43;;;;;;;6.15;2.60;;;17.30;99.90;;;;;;4998324;28;20022;-68
2023/07/21 01:58:11;;;;;;;2.15;1.95;;;17.30;99.90;;;;;;4999445;28;20026;-68
2023/07/21 02:00:41;;;;;;;2.47;2.03;;;17.30;99.90;;;;;;4998324;28;20041;-68
2023/07/21 02:03:07;;;;;;;2.90;2.30;;;17.30;99.90;;;;;;4998255;28;20113;-68
2023/07/21 02:05:34;;;;;;;3.53;1.80;;;17.30;99.90;;;;;;4999229;28;20050;-69
2023/07/21 02:07:59;;;;;;;5.20;2.53;;;17.30;99.90;;;;;;4999621;28;20085;-68
2023/07/21 02:10:25;;;;;;;4.45;2.20;;;17.30;99.90;;;;;;4999351;28;20035;-68
2023/07/21 02:12:50;;;;;;;4.55;2.17;;;17.30;99.90;;;;;;4998139;28;20109;-68
2023/07/21 02:15:17;;;;;;;4.40;2.05;;;17.30;99.90;;;;;;4998793;28;20060;-68
2023/07/21 02:17:42;;;;;;;3.97;2.13;;;17.30;99.90;;;;;;4999461;28;20026;-68
2023/07/21 02:20:10;;;;;;;3.75;2.42;;;17.30;99.90;;;;;;4998189;28;20084;-68
2023/07/21 02:22:37;;;;;;;3.40;1.95;;;17.30;99.90;;;;;;4997851;28;20027;-68
2023/07/21 02:25:04;;;;;;;4.20;2.20;;;17.20;99.90;;;;;;4999067;28;20157;-68
2023/07/21 02:27:30;;;;;;;4.38;2.05;;;17.10;99.90;;;;;;4998013;28;20026;-69
2023/07/21 02:29:56;;;;;;;4.07;2.40;;;17.10;99.90;;;;;;4997764;28;20030;-68
2023/07/21 02:32:22;;;;;;;8.98;2.20;;;17.10;99.90;;;;;;4997776;28;20027;-68
2023/07/21 02:34:47;;;;;;;3.10;1.77;;;16.90;99.90;;;;;;4997665;28;20029;-68
2023/07/21 02:37:13;;;;;;;3.92;2.65;;;16.80;99.90;;;;;;4998401;28;20037;-68
2023/07/21 02:39:39;;;;;;;4.22;2.20;;;16.80;99.90;;;;;;4997902;28;20073;-68
2023/07/21 02:42:04;;;;;;;2.83;1.98;;;16.90;99.90;;;;;;4998495;28;20022;-68
2023/07/21 02:44:30;;;;;;;5.28;1.85;;;17.00;99.90;;;;;;4997831;28;20026;-68
2023/07/21 02:46:57;;;;;;;3.38;2.15;;;17.10;99.90;;;;;;4998262;28;20022;-68
2023/07/21 02:49:23;;;;;;;2.83;1.92;;;17.30;99.90;;;;;;4997357;28;20027;-68
2023/07/21 02:51:49;;;;;;;4.85;1.95;;;17.60;99.90;;;;;;4997272;28;20030;-68
2023/07/21 02:54:14;;;;;;;3.47;2.00;;;17.80;99.90;;;;;;4997287;28;20105;-68
2023/07/21 02:56:40;;;;;;;3.97;2.17;;;17.70;99.90;;;;;;4997267;28;20037;-69
2023/07/21 02:59:06;;;;;;;5.22;2.20;;;17.60;99.90;;;;;;4997312;28;20026;-68
2023/07/21 03:01:32;;;;;;;3.20;2.65;;;17.60;99.90;;;;;;4998185;28;20050;-68
2023/07/21 03:03:58;;;;;;;3.65;2.15;;;17.70;99.90;;;;;;4997341;28;20061;-68
2023/07/21 03:06:24;;;;;;;3.20;2.25;;;17.80;99.90;;;;;;4998055;28;20026;-68
2023/07/21 03:08:50;;;;;;;5.38;2.22;;;17.70;99.90;;;;;;4997018;28;20030;-67
2023/07/21 03:11:17;;;;;;;2.33;2.10;;;17.60;99.90;;;;;;4997098;28;20070;-67
2023/07/21 03:13:46;;;;;;;4.57;2.83;;;17.40;99.90;;;;;;4996950;28;20026;-68
2023/07/21 03:16:12;;;;;;;4.85;2.47;;;17.30;99.90;;;;;;4996887;28;20034;-68
2023/07/21 03:18:38;;;;;;;3.67;2.72;;;17.20;99.90;;;;;;4998028;28;20037;-68
2023/07/21 03:21:04;;;;;;;4.18;3.22;;;17.20;99.90;;;;;;4997674;28;20022;-68
2023/07/21 03:23:30;;;;;;;5.63;2.65;;;17.10;99.90;;;;;;4997944;28;20034;-68
2023/07/21 03:25:56;;;;;;;3.85;2.58;;;17.10;99.90;;;;;;4996845;28;20105;-68
2023/07/21 03:28:21;;;;;;;6.78;2.53;;;17.10;99.90;;;;;;4997401;28;20117;-68
2023/07/21 03:30:56;;;;;;;5.50;2.47;;;17.10;99.90;;;;;;4997664;28;20085;-68
2023/07/21 03:33:22;;;;;;;4.47;2.13;;;17.10;99.90;;;;;;4997545;28;20034;-68
2023/07/21 03:35:47;;;;;;;2.55;2.35;;;17.20;99.90;;;;;;4997979;28;20026;-68
2023/07/21 03:38:13;;;;;;;6.53;2.50;;;17.10;99.90;;;;;;4996789;28;20018;-68
2023/07/21 03:40:38;;;;;;;5.68;2.47;;;17.10;99.90;;;;;;4997670;28;20030;-68
2023/07/21 03:43:04;;;;;;;6.97;2.45;;;17.00;99.90;;;;;;4996916;28;20030;-68
2023/07/21 03:45:29;;;;;;;3.33;2.50;;;16.70;99.90;;;;;;4996519;28;20029;-68
2023/07/21 03:47:55;;;;;;;3.65;2.45;;;16.50;99.90;;;;;;4996673;28;20077;-68
2023/07/21 03:50:20;;;;;;;5.60;2.95;;;16.50;99.90;;;;;;4997428;28;20030;-68
2023/07/21 03:52:46;;;;;;;5.18;2.95;;;16.50;99.90;;;;;;4996804;28;20037;-68
2023/07/21 03:55:11;;;;;;;6.10;3.10;;;16.60;99.90;;;;;;4996579;28;20118;-68
2023/07/21 03:57:39;;;;;;;5.60;2.97;;;16.70;99.90;;;;;;4996806;28;20026;-68
2023/07/21 04:00:06;;;;;;;7.47;2.60;;;16.70;99.90;;;;;;5000473;28;20081;-68
2023/07/21 04:02:31;;;;;;;5.57;3.20;;;16.80;99.90;;;;;;5000368;28;20049;-68
2023/07/21 04:04:57;;;;;;;8.35;3.75;;;16.80;99.90;;;;;;5001629;28;20026;-68
2023/07/21 04:07:22;;;;;;;6.60;3.38;;;16.70;99.90;;;;;;5000408;28;20018;-68
2023/07/21 04:09:48;;;;;;;8.48;2.85;;;16.60;99.90;;;;;;5001491;28;20026;-68
2023/07/21 04:12:14;;;;;;;3.90;2.72;;;16.40;99.90;;;;;;5001342;28;20026;-67
2023/07/21 04:14:39;;;;;;;3.58;2.78;;;16.30;99.90;;;;;;5001150;28;20026;-67
2023/07/21 04:17:05;;;;;;;3.35;2.60;;;16.30;99.90;;;;;;5000805;28;20037;-68
2023/07/21 04:19:30;;;;;;;6.60;3.20;;;16.40;99.90;;;;;;5000578;28;20030;-68
2023/07/21 04:21:56;;;;;;;4.00;2.90;;;16.30;99.90;;;;;;5000235;28;20022;-68
2023/07/21 04:24:22;;;;;;;3.10;2.80;;;16.40;99.90;;;;;;5024309;23;20038;-71
2023/07/21 04:26:47;;;;;;;3.22;2.50;;;16.50;99.90;;;;;;5000273;28;20026;-71
2023/07/21 04:29:13;;;;;;;5.05;2.55;;;16.60;99.90;;;;;;5001022;28;20034;-71
2023/07/21 04:31:38;;;;;;;4.10;2.42;;;16.70;99.90;;;;;;5016325;28;20073;-71
2023/07/21 04:34:04;;;;;;;5.10;2.92;;;16.60;99.90;;;;;;4999803;28;20034;-71
2023/07/21 04:36:29;;;;;;;4.45;2.97;;;16.40;99.90;;;;;;5000693;28;20027;-71
2023/07/21 04:38:55;;;;;;;4.75;3.25;;;16.60;99.90;;;;;;5000576;28;20027;-71
2023/07/21 04:41:21;;;;;;;6.25;2.60;;;16.70;99.90;;;;;;4999588;28;20023;-71
2023/07/21 04:43:46;;;;;;;3.92;2.75;;;16.70;99.90;;;;;;5000857;28;20022;-71
2023/07/21 04:46:13;;;;;;;3.83;2.20;;;16.60;99.90;;;;;;4999661;28;20081;-71
2023/07/21 04:48:38;;;;;;;3.05;2.45;;;16.80;99.90;;;;;;4999615;28;20101;-71
2023/07/21 04:51:04;;;;;;;4.15;2.60;;;17.10;99.90;;;;;;4999829;28;20113;-71
2023/07/21 04:53:30;;;;;;;3.35;2.40;;;17.20;99.90;;;;;;5000258;28;20031;-71
2023/07/21 04:55:57;;;;;;;5.53;2.67;;;17.40;99.90;;;;;;4999552;28;20033;-71
2023/07/21 04:58:22;;;;;;;4.95;3.38;;;17.20;99.90;;;;;;4999695;28;20037;-71
2023/07/21 05:00:48;;;;;;;5.75;3.38;;;17.00;99.90;;;;;;4999297;28;20034;-71
2023/07/21 05:03:14;;;;;;;5.07;3.53;;;16.60;99.90;;;;;;4999629;28;20022;-71
2023/07/21 05:05:39;;;;;;;3.00;2.70;;;16.60;99.90;;;;;;5000280;28;20025;-71
2023/07/21 05:08:05;;;;;;;5.38;2.88;;;16.50;99.90;;;;;;4999356;28;20029;-71
2023/07/21 05:10:31;;;;;;;8.95;2.90;;;16.50;99.90;;;;;;4998818;28;20022;-71
2023/07/21 05:12:59;;;;;;;5.93;3.25;;;16.50;99.90;;;;;;5000091;28;20031;-71
2023/07/21 05:15:25;;;;;;;4.72;3.22;;;16.20;99.90;;;;;;4998946;28;20022;-71
2023/07/21 05:17:51;;;;;;;3.72;2.70;;;16.20;99.90;;;;;;5000050;28;20025;-71
2023/07/21 05:20:19;;;;;;;5.05;2.72;;;16.30;99.90;;;;;;4999048;28;20026;-71
2023/07/21 05:22:46;;;;;;;4.28;2.78;;;16.40;99.90;;;;;;5000123;28;20023;-71
2023/07/21 05:25:12;;;;;;;3.70;2.95;;;16.40;99.90;;;;;;4999369;28;20034;-71
2023/07/21 05:27:38;;;;;;;5.60;2.40;;;16.20;99.90;;;;;;4999999;28;20022;-71
2023/07/21 05:30:03;;;;;;;3.55;2.80;;;16.10;99.90;;;;;;4999311;28;20033;-71
2023/07/21 05:32:29;;;;;;;3.53;3.00;;;16.00;99.90;;;;;;4999842;28;20089;-71
2023/07/21 05:34:55;;;;;;;7.07;2.90;;;15.90;99.90;;;;;;4998628;28;20035;-71
2023/07/21 05:37:20;;;;;;;4.18;3.10;;;15.90;99.90;;;;;;4999913;28;20026;-71
2023/07/21 05:39:46;;;;;;;3.55;2.65;;;15.80;99.90;;;;;;4999771;28;20027;-71
2023/07/21 05:42:11;;;;;;;6.65;2.72;;;16.10;99.90;;;;;;4998640;28;20027;-71
2023/07/21 05:44:38;;;;;;;4.65;3.10;;;16.50;99.90;;;;;;4998752;28;20023;-71
2023/07/21 05:47:03;;;;;;;4.47;2.97;;;16.60;99.90;;;;;;4999195;28;20014;-71
2023/07/21 05:49:29;;;;;;;5.75;3.20;;;16.80;99.90;;;;;;4999292;28;20022;-71
2023/07/21 05:51:55;;;;;;;4.10;3.28;;;17.00;99.90;;;;;;4998531;28;20034;-71
2023/07/21 05:54:20;;;;;;;4.78;3.15;;;17.10;99.90;;;;;;4998444;28;20033;-71
2023/07/21 05:56:46;;;;;;;5.25;3.90;;;17.00;99.90;;;;;;4999202;28;20026;-71
2023/07/21 05:59:11;;;;;;;6.38;3.22;;;17.00;99.90;;;;;;4999420;28;20037;-71
2023/07/21 06:01:37;;;;;;;4.53;3.58;;;17.00;99.90;;;;;;4998146;28;20084;-71
2023/07/21 06:04:05;;;;;;;4.68;3.58;;;17.00;99.90;;;;;;4999043;28;20018;-71
2023/07/21 06:06:31;;;;;;;4.63;3.25;;;17.10;99.90;;;;;;4998154;28;20094;-71
2023/07/21 06:08:57;;;;;;;7.05;3.70;;;17.10;99.90;;;;;;4998128;28;20054;-71
2023/07/21 06:11:23;;;;;;;3.85;3.17;;;17.00;99.90;;;;;;4998439;28;20029;-71
2023/07/21 06:13:49;;;;;;;6.97;3.53;;;17.10;99.90;;;;;;4997993;28;20033;-71
2023/07/21 06:16:15;;;;;;;7.90;3.72;;;17.20;99.90;;;;;;4997940;28;20031;-71
2023/07/21 06:18:42;;;;;;;5.95;3.20;;;17.20;99.90;;;;;;4998113;28;20034;-71
2023/07/21 06:21:11;;;;;;;5.57;3.10;;;17.20;99.90;;;;;;4997187;28;20121;-71
2023/07/21 06:23:37;;;;;;;5.22;3.33;;;17.10;99.90;;;;;;4997679;28;20037;-71
2023/07/21 06:26:03;;;;;;;4.75;3.40;;;17.20;99.90;;;;;;4997638;28;20030;-71
2023/07/21 06:28:29;;;;;;;4.30;3.10;;;17.20;99.90;;;;;;4998120;28;20026;-71
2023/07/21 06:30:55;;;;;;;6.07;3.42;;;17.30;99.90;;;;;;4998078;28;20024;-71
2023/07/21 06:33:20;;;;;;;3.88;3.15;;;17.40;99.90;;;;;;4998788;28;20026;-71
2023/07/21 06:35:46;;;;;;;4.22;3.25;;;17.40;99.90;;;;;;4997780;28;20109;-71
2023/07/21 06:38:11;;;;;;;4.15;3.15;;;17.60;99.90;;;;;;4997654;28;20018;-71
2023/07/21 06:40:37;;;;;;;3.20;2.90;;;17.50;99.90;;;;;;4998547;28;20018;-71
2023/07/21 06:43:03;;;;;;;3.15;2.80;;;17.50;99.90;;;;;;4998408;28;20026;-71
2023/07/21 06:45:28;;;;;;;4.20;2.83;;;17.50;99.90;;;;;;4998288;28;20030;-71
2023/07/21 06:47:54;;;;;;;12.43;2.92;;;17.40;99.90;;;;;;4998229;28;20027;-71
2023/07/21 06:50:19;;;;;;;3.80;3.10;;;17.50;99.90;;;;;;4997508;28;20030;-71
2023/07/21 06:52:46;;;;;;;3.20;2.78;;;17.50;99.90;;;;;;4997241;28;20026;-71
2023/07/21 06:55:11;;;;;;;4.30;2.53;;;17.20;99.90;;;;;;4998237;28;20024;-71
2023/07/21 06:57:37;;;;;;;3.42;2.60;;;17.20;99.90;;;;;;4997448;28;20022;-71
2023/07/21 07:00:05;;;;;;;2.97;2.60;;;17.20;99.90;;;;;;4997204;28;20030;-71
2023/07/21 07:02:31;;;;;;;4.60;2.40;;;17.10;99.90;;;;;;4998062;28;20022;-71
2023/07/21 07:04:56;;;;;;;3.28;2.55;;;17.10;99.90;;;;;;4996872;28;20026;-71
2023/07/21 07:07:21;;;;;;;4.25;2.67;;;17.20;99.90;;;;;;4997083;28;20029;-71
2023/07/21 07:09:47;;;;;;;4.90;3.10;;;17.30;99.90;;;;;;4997048;28;20037;-71
2023/07/21 07:12:13;;;;;;;4.55;2.78;;;17.20;99.90;;;;;;4997004;28;20022;-70
2023/07/21 07:14:38;;;;;;;3.90;2.78;;;17.30;99.90;;;;;;4997092;28;20045;-70
2023/07/21 07:17:04;;;;;;;12.77;3.63;;;17.20;99.90;;;;;;4997227;28;20045;-70
2023/07/21 07:19:30;;;;;;;4.28;2.78;;;17.20;99.90;;;;;;4997610;28;20073;-70
2023/07/21 07:21:55;;;;;;;4.80;3.20;;;17.10;99.90;;;;;;4997814;28;20036;-70
2023/07/21 07:24:21;;;;;;;3.63;2.80;;;17.00;99.90;;;;;;4997254;28;20121;-70
2023/07/21 07:26:47;;;;;;;7.78;3.03;;;17.10;99.90;;;;;;4996773;28;20015;-70
2023/07/21 07:29:15;;;;;;;3.92;2.60;;;17.20;99.90;;;;;;4996855;28;20019;-71
2023/07/21 07:31:41;;;;;;;3.25;2.83;;;17.30;99.90;;;;;;4997575;28;20026;-70
2023/07/21 07:34:07;;;;;;;10.55;2.70;;;17.40;99.90;;;;;;4997173;28;20029;-71
2023/07/21 07:36:32;;;;;;;3.45;2.53;;;17.10;99.90;;;;;;4997531;28;20024;-70
2023/07/21 07:38:58;;;;;;;4.82;2.67;;;17.20;99.90;;;;;;4996742;28;20030;-70
2023/07/21 07:41:23;;;;;;;3.10;2.17;;;17.30;99.90;;;;;;4996428;28;20031;-70
2023/07/21 07:43:49;;;;;;;3.03;2.38;;;17.30;99.90;;;;;;4996704;28;20023;-70
2023/07/21 07:46:17;;;;;;;3.33;2.40;;;17.10;99.90;;;;;;4996762;28;20022;-71
2023/07/21 07:48:43;;;;;;;4.57;2.40;;;17.00;99.90;;;;;;4997031;28;20118;-70
2023/07/21 07:51:09;;;;;;;5.47;2.90;;;17.00;99.90;;;;;;4997470;28;20065;-71
2023/07/21 07:53:35;;;;;;;3.13;2.40;;;16.90;99.90;;;;;;4996648;28;20027;-71
2023/07/21 07:56:01;;;;;;;2.50;2.20;;;16.80;99.90;;;;;;4997021;28;20027;-71
2023/07/21 07:58:27;;;;;;;3.83;2.67;;;16.80;99.90;;;;;;4996470;28;20053;-71
2023/07/21 08:00:57;;;;;;;4.85;2.78;;;16.80;99.90;;;;;;4996459;28;20088;-71
2023/07/21 08:03:23;;;;;;;2.97;2.67;;;16.90;99.90;;;;;;4997376;28;20084;-71
2023/07/21 08:05:50;;;;;;;3.15;2.85;;;17.00;99.90;;;;;;4996779;28;20030;-71
2023/07/21 08:08:18;;;;;;;3.70;2.38;;;17.30;99.90;;;;;;4996431;28;20158;-71
2023/07/21 08:10:44;;;;;;;2.92;2.50;;;17.60;99.90;;;;;;4997868;28;20019;-71
2023/07/21 08:13:10;;;;;;;3.15;2.38;;;17.90;99.90;;;;;;4997095;28;20030;-71
2023/07/21 08:15:39;;;;;;;5.18;2.65;;;18.10;99.90;;;;;;4996645;28;20033;-72
2023/07/21 08:18:04;;;;;;;8.43;2.42;;;18.10;99.90;;;;;;4996292;28;20108;-72
2023/07/21 08:20:30;;;;;;;3.70;2.15;;;18.20;99.90;;;;;;4996234;28;20062;-71
2023/07/21 08:22:56;;;;;;;2.67;2.00;;;18.50;99.90;;;;;;4996948;28;20105;-70
2023/07/21 08:25:21;;;;;;;3.25;2.60;;;18.50;99.90;;;;;;4996180;28;20023;-71
2023/07/21 08:27:47;;;;;;;3.90;2.47;;;18.40;99.90;;;;;;4996222;28;20022;-70
2023/07/21 08:30:14;;;;;;;4.88;2.50;;;18.60;99.90;;;;;;4996503;28;20022;-70
2023/07/21 08:32:41;;;;;;;6.18;2.50;;;18.70;99.90;;;;;;4996184;28;20089;-70
2023/07/21 08:35:07;;;;;;;3.83;2.70;;;18.80;99.90;;;;;;4996509;28;20052;-71
2023/07/21 08:37:34;;;;;;;4.07;2.53;;;18.50;99.90;;;;;;4996044;28;20029;-70
2023/07/21 08:40:00;;;;;;;5.03;2.60;;;18.40;99.90;;;;;;4996970;28;20030;-70
2023/07/21 08:42:26;;;;;;;4.85;2.63;;;18.50;99.90;;;;;;4997364;28;20022;-70
2023/07/21 08:44:54;;;;;;;4.97;3.20;;;18.70;99.90;;;;;;4997959;28;20026;-70
2023/07/21 08:47:20;;;;;;;6.50;4.20;;;18.70;99.90;;;;;;5000559;28;20023;-70
2023/07/21 08:49:47;;;;;;;3.10;2.47;;;18.90;99.90;;;;;;5000563;28;20030;-69
2023/07/21 08:52:13;;;;;;;6.35;2.70;;;19.10;99.90;;;;;;4999596;28;20058;-69
2023/07/21 08:54:39;;;;;;;5.25;3.10;;;19.00;99.90;;;;;;4999762;28;20022;-68
2023/07/21 08:57:05;;;;;;;6.07;3.10;;;19.10;99.90;;;;;;4999867;28;20023;-70
2023/07/21 08:59:30;;;;;;;5.05;3.08;;;18.90;99.90;;;;;;5000723;28;20033;-69
2023/07/21 09:01:56;;;;;;;3.35;3.03;;;18.80;99.90;;;;;;4999291;28;20030;-69
2023/07/21 09:04:23;;;;;;;7.00;3.00;;;18.80;99.90;;;;;;4999725;28;20023;-69
2023/07/21 09:06:50;;;;;;;5.13;3.17;;;18.90;99.90;;;;;;5000215;28;20022;-69
2023/07/21 09:09:20;;;;;;;6.60;3.17;;;18.90;99.90;;;;;;5000503;28;20059;-69
2023/07/21 09:11:46;;;;;;;4.95;3.47;;;18.80;99.90;;;;;;5000168;28;20096;-69
2023/07/21 09:14:12;;;;;;;5.10;3.05;;;18.90;99.90;;;;;;4999592;28;20061;-72
2023/07/21 09:16:45;;;;;;;6.00;3.72;;;19.00;99.90;;;;;;4999205;28;20065;-70
2023/07/21 09:19:10;;;;;;;4.43;3.30;;;19.40;99.90;;;;;;4999791;28;20060;-70
2023/07/21 09:21:37;;;;;;;5.00;3.35;;;19.30;99.90;;;;;;4998921;28;20061;-70
2023/07/21 09:24:03;;;;;;;11.52;3.65;;;19.30;99.90;;;;;;4998816;28;20030;-72
2023/07/21 09:26:29;;;;;;;4.00;2.72;;;19.20;99.90;;;;;;4998997;28;20030;-72
2023/07/21 09:28:55;;;;;;;4.25;3.03;;;19.50;99.90;;;;;;4999921;28;20028;-71
2023/07/21 09:31:28;;;;;;;5.85;3.35;;;19.30;99.90;;;;;;4998721;28;20035;-72
2023/07/21 09:33:54;;;;;;;4.55;2.88;;;19.40;99.90;;;;;;4999620;28;20050;-72
2023/07/21 09:36:22;;;;;;;3.47;2.50;;;19.70;99.90;;;;;;4998725;28;20100;-72
2023/07/21 09:38:48;;;;;;;2.90;2.40;;;19.70;99.90;;;;;;4999402;28;20037;-72
2023/07/21 09:41:15;;;;;;;3.90;2.53;;;19.90;99.90;;;;;;4998881;28;20018;-71
2023/07/21 09:43:41;;;;;;;4.47;2.53;;;20.00;99.90;;;;;;4998559;28;20033;-71
2023/07/21 09:46:08;;;;;;;3.63;2.90;;;20.00;99.90;;;;;;4998704;28;20110;-72
2023/07/21 09:48:35;;;;;;;4.93;3.20;;;20.00;99.90;;;;;;4998891;28;20022;-71
2023/07/21 09:51:03;;;;;;;4.78;3.78;;;20.10;99.90;;;;;;4998741;28;20122;-71
2023/07/21 09:53:38;;;;;;;3.72;3.00;;;20.00;99.90;;;;;;4998725;28;20041;-71
2023/07/21 09:56:05;;;;;;;7.55;3.78;;;20.00;99.90;;;;;;4998468;28;20022;-71
2023/07/21 09:58:33;;;;;;;6.07;3.35;;;20.00;99.90;;;;;;4998710;28;20029;-71
2023/07/21 10:01:04;;;;;;;6.88;2.63;;;20.00;99.90;;;;;;4999393;28;20040;-71
2023/07/21 10:03:31;;;;;;;3.15;2.75;;;19.90;99.90;;;;;;4999208;28;20025;-71
2023/07/21 10:05:58;;;;;;;2.50;2.30;;;19.90;99.90;;;;;;4998524;28;20030;-71
2023/07/21 10:08:27;;;;;;;5.53;2.92;;;20.10;99.90;;;;;;4999000;28;20026;-71
2023/07/21 10:10:55;;;;;;;4.28;3.30;;;20.00;99.90;;;;;;4999139;28;20023;-71
2023/07/21 10:13:20;;;;;;;5.30;3.33;;;19.90;99.90;;;;;;4998341;28;20130;-71
2023/07/21 10:15:47;;;;;;;8.63;4.60;;;19.90;99.90;;;;;;4998350;28;20033;-71
2023/07/21 10:18:14;;;;;;;5.85;3.47;;;19.80;99.90;;;;;;4998745;28;20030;-71
2023/07/21 10:20:50;;;;;;;3.78;2.92;;;19.80;99.90;;;;;;4997957;28;20026;-71
2023/07/21 10:25:47;;;;;;;6.07;3.20;;;19.70;99.90;;;;;;5020098;23;20062;-67
2023/07/21 10:28:13;;;;;;;4.93;2.63;;;19.60;99.90;;;;;;4998812;28;20109;-67
2023/07/21 10:30:41;;;;;;;7.95;3.63;;;19.50;99.90;;;;;;5014114;28;20026;-67
2023/07/21 10:33:17;;;;;;;4.10;3.30;;;19.70;99.90;;;;;;4998736;28;20022;-67
2023/07/21 10:35:43;;;;;;;4.45;2.85;;;19.60;99.90;;;;;;4997927;28;20113;-67
2023/07/21 10:38:14;;;;;;;3.72;3.08;;;19.50;99.90;;;;;;4997762;28;20116;-68
2023/07/21 10:40:47;;;;;;;7.05;3.60;;;19.50;99.90;;;;;;4997530;28;20026;-68
2023/07/21 10:43:13;;;;;;;6.03;3.58;;;19.70;99.90;;;;;;4998534;28;20157;-68
2023/07/21 10:45:38;;;;;;;5.70;3.08;;;19.70;99.90;;;;;;4997434;28;20065;-68
2023/07/21 10:48:11;;;;;;;4.78;3.30;;;19.70;99.90;;;;;;4997908;28;20043;-68
2023/07/21 10:50:41;;;;;;;4.50;3.10;;;19.70;99.90;;;;;;4997444;28;20076;-67
2023/07/21 10:53:07;;;;;;;7.07;3.22;;;19.70;99.90;;;;;;4997225;28;20048;-67
2023/07/21 10:55:36;;;;;;;5.35;3.05;;;19.70;99.90;;;;;;4998265;28;20090;-68
2023/07/21 10:58:01;;;;;;;5.78;2.80;;;19.80;99.90;;;;;;4997561;28;20137;-68
2023/07/21 11:00:27;;;;;;;6.03;3.20;;;19.80;99.90;;;;;;4997116;28;20093;-68
2023/07/21 11:02:54;;;;;;;5.05;3.05;;;20.10;99.90;;;;;;4997329;28;20029;-67
2023/07/21 11:05:22;;;;;;;4.75;3.08;;;20.30;99.90;;;;;;4998120;28;20018;-67
2023/07/21 11:07:48;;;;;;;6.15;3.63;;;20.20;99.90;;;;;;4996979;28;20095;-67
2023/07/21 11:10:14;;;;;;;3.72;2.63;;;20.30;99.90;;;;;;4997346;28;20027;-67
2023/07/21 11:12:40;;;;;;;3.70;2.60;;;20.20;99.90;;;;;;4997813;28;20026;-68
2023/07/21 11:15:08;;;;;;;5.25;3.03;;;20.10;99.90;;;;;;4997296;28;20029;-67
2023/07/21 11:17:34;;;;;;;5.50;3.03;;;20.40;99.90;;;;;;4997933;28;20023;-68
2023/07/21 11:20:06;;;;;;;4.32;3.08;;;20.40;99.90;;;;;;4998069;28;20077;-68
2023/07/21 11:22:33;;;;;;;5.00;2.88;;;20.50;99.90;;;;;;4997187;28;20026;-67
2023/07/21 11:25:12;;;;;;;5.88;3.17;;;20.40;99.90;;;;;;4997060;28;20034;-68
2023/07/21 11:27:45;;;;;;;3.85;3.22;;;20.30;99.90;;;;;;4996814;28;20044;-67
2023/07/21 11:30:15;;;;;;;4.28;2.90;;;20.10;99.90;;;;;;4997659;28;20030;-68
2023/07/21 11:32:41;;;;;;;7.28;4.85;;;20.00;99.90;;;;;;4997611;28;20018;-67
2023/07/21 11:35:07;;;;;;;5.40;3.80;;;20.20;99.90;;;;;;4996854;28;20045;-68
2023/07/21 11:37:41;;;;;;;4.68;3.22;;;20.40;99.90;;;;;;4997587;28;20105;-68
2023/07/21 11:40:12;;;;;;;6.30;2.70;;;20.60;99.90;;;;;;4997523;28;20033;-67
2023/07/21 11:42:47;;;;;;;3.25;2.47;;;20.60;99.90;;;;;;4997539;28;20019;-68
2023/07/21 11:45:39;;;;;;;5.57;2.83;;;20.50;99.90;;;;;;4996465;28;20041;-68
2023/07/21 11:48:34;;;;;;;5.30;2.53;;;20.40;99.90;;;;;;4996672;28;20019;-67
2023/07/21 11:51:04;;;;;;;3.83;2.80;;;20.30;99.90;;;;;;4941272;29;20074;-67
2023/07/21 11:53:45;;;;;;;6.45;2.88;;;20.30;99.90;;;;;;4941672;28;20032;-67
2023/07/21 11:56:11;;;;;;;6.93;3.00;;;20.60;99.90;;;;;;4941850;29;20031;-67
2023/07/21 11:58:37;;;;;;;5.95;2.72;;;20.70;99.90;;;;;;4941314;29;20027;-67
2023/07/21 12:01:07;;;;;;;6.82;2.90;;;20.70;99.90;;;;;;4941063;29;20039;-67
2023/07/21 12:03:35;;;;;;;6.25;2.70;;;20.50;99.90;;;;;;4957182;28;20027;-68
2023/07/21 12:06:01;;;;;;;3.65;2.35;;;20.40;99.90;;;;;;4941067;29;20086;-68
2023/07/21 12:08:27;;;;;;;5.55;2.70;;;20.40;99.90;;;;;;4941190;29;20114;-68
2023/07/21 12:10:52;;;;;;;6.45;2.42;;;20.60;99.90;;;;;;4941054;29;20049;-68
2023/07/21 12:13:18;;;;;;;6.28;2.38;;;20.80;99.90;;;;;;4941790;29;20031;-68
2023/07/21 12:15:43;;;;;;;5.28;2.58;;;20.80;99.90;;;;;;4957032;28;20023;-68
2023/07/21 12:18:09;;;;;;;8.93;3.08;;;20.90;99.90;;;;;;4957492;28;20031;-68
2023/07/21 12:20:34;;;;;;;3.75;3.03;;;20.90;99.90;;;;;;4944251;29;20090;-68
2023/07/21 12:23:00;;;;;;;3.17;2.67;;;20.90;99.90;;;;;;4944739;29;20110;-68
2023/07/21 12:25:26;;;;;;;4.65;3.30;;;21.00;99.90;;;;;;4960821;28;20043;-68
2023/07/21 12:27:51;;;;;;;4.03;2.80;;;20.90;99.90;;;;;;4983517;28;20037;-68
2023/07/21 12:30:17;;;;;;;5.93;3.63;;;20.90;99.90;;;;;;5000101;28;20026;-68
2023/07/21 12:32:42;;;;;;;4.68;4.05;;;20.80;99.90;;;;;;5000321;28;20100;-68
2023/07/21 12:35:09;;;;;;;5.30;3.10;;;20.80;99.90;;;;;;5000393;28;20121;-68
2023/07/21 12:37:38;;;;;;;7.15;3.22;;;20.70;99.90;;;;;;5000395;28;20030;-68
2023/07/21 12:40:06;;;;;;;8.30;3.22;;;20.70;99.90;;;;;;4999924;28;20029;-68
2023/07/21 12:42:31;;;;;;;6.05;2.90;;;20.60;99.90;;;;;;4999841;28;20034;-68
2023/07/21 12:44:57;;;;;;;6.38;3.67;;;20.60;99.90;;;;;;4999832;28;20031;-68